createdAt,value
2023-03-16T00:02:46.819Z,95268.00
2023-03-16T00:06:46.815Z,95266.00
2023-03-16T00:10:46.876Z,95270.00
2023-03-16T00:14:46.926Z,95264.00
2023-03-16T00:18:46.977Z,95266.00
2023-03-16T00:22:47.017Z,95272.00
2023-03-16T00:26:47.012Z,95270.00
2023-03-16T00:30:47.056Z,95276.00
2023-03-16T00:34:47.096Z,95278.00
2023-03-16T00:38:47.144Z,95272.00
2023-03-16T00:42:47.197Z,95268.00
2023-03-16T00:46:47.196Z,95270.00
2023-03-16T00:50:47.290Z,95274.00
2023-03-16T00:54:47.294Z,95278.00
2023-03-16T00:58:47.359Z,95276.00
2023-03-16T01:02:47.445Z,95272.00
2023-03-16T01:06:47.395Z,95266.00
2023-03-16T01:10:47.450Z,95264.00
2023-03-16T01:14:47.476Z,95262.00
2023-03-16T01:18:47.565Z,95258.00
2023-03-16T01:22:47.606Z,95266.00
2023-03-16T01:26:47.652Z,95270.00
2023-03-16T01:30:47.713Z,95268.00
2023-03-16T01:34:47.790Z,95270.00
2023-03-16T01:38:47.746Z,95268.00
2023-03-16T01:42:47.849Z,95274.00
2023-03-16T01:46:47.891Z,95276.00
2023-03-16T01:50:47.993Z,95272.00
2023-03-16T01:54:48.037Z,95272.00
2023-03-16T01:58:48.043Z,95268.00
2023-03-16T02:02:48.101Z,95272.00
2023-03-16T02:06:48.125Z,95270.00
2023-03-16T02:10:48.177Z,95274.00
2023-03-16T02:14:48.204Z,95276.00
2023-03-16T02:18:48.250Z,95276.00
2023-03-16T02:22:48.321Z,95276.00
2023-03-16T02:26:48.311Z,95272.00
2023-03-16T02:30:48.388Z,95274.00
2023-03-16T02:34:48.430Z,95278.00
2023-03-16T02:38:48.511Z,95276.00
2023-03-16T02:42:48.565Z,95282.00
2023-03-16T02:46:48.668Z,95278.00
2023-03-16T02:50:48.613Z,95280.00
2023-03-16T02:54:48.649Z,95278.00
2023-03-16T02:58:48.695Z,95282.00
2023-03-16T03:02:48.985Z,95284.00
2023-03-16T03:06:48.835Z,95284.00
2023-03-16T03:10:48.919Z,95286.00
2023-03-16T03:14:48.981Z,95293.00
2023-03-16T03:18:49.070Z,95295.00
2023-03-16T03:22:49.159Z,95297.00
2023-03-16T03:26:49.262Z,95299.00
2023-03-16T03:30:49.335Z,95305.00
2023-03-16T03:34:49.327Z,95305.00
2023-03-16T03:38:49.445Z,95307.00
2023-03-16T03:42:49.530Z,95303.00
2023-03-16T03:46:49.641Z,95301.00
2023-03-16T03:50:49.720Z,95297.00
2023-03-16T03:54:49.811Z,95297.00
2023-03-16T03:58:49.859Z,95303.00
2023-03-16T04:02:50.000Z,95303.00
2023-03-16T04:06:50.007Z,95303.00
2023-03-16T04:10:50.163Z,95303.00
2023-03-16T04:14:50.201Z,95303.00
2023-03-16T04:18:50.236Z,95303.00
2023-03-16T04:22:50.391Z,95299.00
2023-03-16T04:26:50.500Z,95297.00
2023-03-16T04:30:50.689Z,95303.00
2023-03-16T04:34:50.627Z,95297.00
2023-03-16T04:38:50.691Z,95297.00
2023-03-16T04:42:50.802Z,95297.00
2023-03-16T04:46:50.889Z,95297.00
2023-03-16T04:50:50.997Z,95291.00
2023-03-16T04:54:51.046Z,95286.00
2023-03-16T04:58:51.114Z,95286.00
2023-03-16T05:02:51.201Z,95284.00
2023-03-16T05:06:51.308Z,95286.00
2023-03-16T05:10:51.395Z,95293.00
2023-03-16T05:14:51.518Z,95286.00
2023-03-16T05:18:51.606Z,95291.00
2023-03-16T05:22:51.774Z,95295.00
2023-03-16T05:26:51.839Z,95299.00
2023-03-16T05:30:52.055Z,95299.00
2023-03-16T05:34:52.005Z,95303.00
2023-03-16T05:38:52.109Z,95307.00
2023-03-16T05:42:52.200Z,95305.00
2023-03-16T05:46:52.299Z,95309.00
2023-03-16T05:50:52.389Z,95307.00
2023-03-16T05:54:52.475Z,95305.00
2023-03-16T05:58:52.566Z,95309.00
2023-03-16T06:02:52.700Z,95305.00
2023-03-16T06:06:52.671Z,95305.00
2023-03-16T06:10:52.776Z,95305.00
2023-03-16T06:14:52.832Z,95309.00
2023-03-16T06:18:52.843Z,95313.00
2023-03-16T06:22:52.941Z,95315.00
2023-03-16T06:26:53.018Z,95317.00
2023-03-16T06:30:53.073Z,95317.00
2023-03-16T06:34:53.056Z,95325.00
2023-03-16T06:38:53.578Z,95317.00
2023-03-16T06:42:53.239Z,95317.00
2023-03-16T06:46:53.646Z,95323.00
2023-03-16T06:50:53.626Z,95321.00
2023-03-16T06:54:53.479Z,95317.00
2023-03-16T06:58:53.567Z,95315.00
2023-03-16T07:02:53.444Z,95319.00
2023-03-16T07:06:53.453Z,95311.00
2023-03-16T07:10:53.541Z,95307.00
2023-03-16T07:14:54.347Z,95311.00
2023-03-16T07:18:53.766Z,95313.00
2023-03-16T07:22:53.865Z,95307.00
2023-03-16T07:26:54.119Z,95303.00
2023-03-16T07:31:03.512Z,95305.00
2023-03-16T07:34:58.044Z,95307.00
2023-03-16T07:38:54.084Z,95311.00
2023-03-16T07:42:54.121Z,95317.00
2023-03-16T07:46:54.057Z,95317.00
2023-03-16T07:50:54.034Z,95313.00
2023-03-16T07:54:53.945Z,95313.00
2023-03-16T07:58:54.090Z,95307.00
2023-03-16T08:02:54.141Z,95309.00
2023-03-16T08:06:54.547Z,95303.00
2023-03-16T08:10:56.473Z,95305.00
2023-03-16T08:14:54.274Z,95301.00
2023-03-16T08:18:54.609Z,95301.00
2023-03-16T08:22:54.390Z,95301.00
2023-03-16T08:26:54.570Z,95297.00
2023-03-16T08:30:54.671Z,95293.00
2023-03-16T08:34:55.065Z,95287.00
2023-03-16T08:39:05.872Z,95286.00
2023-03-16T08:42:56.051Z,95287.00
2023-03-16T08:46:54.911Z,95291.00
2023-03-16T08:50:55.080Z,95284.00
2023-03-16T08:55:03.005Z,95272.00
2023-03-16T08:58:56.058Z,95266.00
2023-03-16T09:02:55.024Z,95264.00
2023-03-16T09:07:07.890Z,95258.00
2023-03-16T09:10:56.189Z,95256.00
2023-03-16T09:14:55.076Z,95256.00
2023-03-16T09:18:55.049Z,95254.00
2023-03-16T09:22:55.114Z,95252.00
2023-03-16T09:26:55.233Z,95246.00
2023-03-16T09:30:55.590Z,95242.00
2023-03-16T09:34:55.225Z,95242.00
2023-03-16T09:38:55.564Z,95237.00
2023-03-16T09:42:55.332Z,95233.00
2023-03-16T09:46:55.604Z,95231.00
2023-03-16T09:50:56.104Z,95227.00
2023-03-16T09:54:55.628Z,95223.00
2023-03-16T09:58:55.519Z,95221.00
2023-03-16T10:02:55.616Z,95215.00
2023-03-16T10:06:56.064Z,95213.00
2023-03-16T10:10:55.701Z,95203.00
2023-03-16T10:14:55.865Z,95201.00
2023-03-16T10:18:55.895Z,95197.00
2023-03-16T10:22:55.972Z,95187.00
2023-03-16T10:26:56.082Z,95184.00
2023-03-16T10:30:56.614Z,95180.00
2023-03-16T10:34:56.242Z,95174.00
2023-03-16T10:38:56.158Z,95168.00
2023-03-16T10:42:56.612Z,95166.00
2023-03-16T10:46:56.661Z,95154.00
2023-03-16T10:50:56.074Z,95148.00
2023-03-16T10:54:56.139Z,95144.00
2023-03-16T10:58:56.097Z,95135.00
2023-03-16T11:02:56.128Z,95135.00
2023-03-16T11:06:55.914Z,95129.00
2023-03-16T11:10:56.370Z,95125.00
2023-03-16T11:14:56.180Z,95123.00
2023-03-16T11:18:55.822Z,95113.00
2023-03-16T11:22:55.747Z,95107.00
2023-03-16T11:26:55.739Z,95099.00
2023-03-16T11:30:56.149Z,95092.00
2023-03-16T11:34:56.165Z,95082.00
2023-03-16T11:38:56.851Z,95066.00
2023-03-16T11:42:56.382Z,95060.00
2023-03-16T11:46:56.669Z,95060.00
2023-03-16T11:50:56.740Z,95056.00
2023-03-16T11:54:56.897Z,95050.00
2023-03-16T11:58:56.962Z,95043.00
2023-03-16T12:02:57.220Z,95033.00
2023-03-16T12:06:57.069Z,95025.00
2023-03-16T12:10:57.148Z,95017.00
2023-03-16T12:14:57.162Z,95007.00
2023-03-16T12:18:57.295Z,94995.00
2023-03-16T12:22:57.662Z,94986.00
2023-03-16T12:26:57.657Z,94980.00
2023-03-16T12:30:57.868Z,94974.00
2023-03-16T12:34:57.674Z,94968.00
2023-03-16T12:38:58.200Z,94968.00
2023-03-16T12:42:57.921Z,94956.00
2023-03-16T12:46:58.157Z,94948.00
2023-03-16T12:50:58.144Z,94943.00
2023-03-16T12:54:58.659Z,94935.00
2023-03-16T12:58:58.663Z,94929.00
2023-03-16T13:02:58.323Z,94929.00
2023-03-16T13:06:58.735Z,94923.00
2023-03-16T13:10:58.472Z,94919.00
2023-03-16T13:14:58.647Z,94915.00
2023-03-16T13:18:58.561Z,94909.00
2023-03-16T13:22:58.747Z,94911.00
2023-03-16T13:26:58.676Z,94909.00
2023-03-16T13:30:58.915Z,94905.00
2023-03-16T13:34:59.024Z,94894.00
2023-03-16T13:38:59.178Z,94888.00
2023-03-16T13:42:59.173Z,94892.00
2023-03-16T13:46:59.677Z,94886.00
2023-03-16T13:50:59.334Z,94884.00
2023-03-16T13:54:59.630Z,94876.00
2023-03-16T13:58:59.689Z,94880.00
2023-03-16T14:02:59.830Z,94884.00
2023-03-16T14:07:01.249Z,94882.00
2023-03-16T14:11:01.453Z,94874.00
2023-03-16T14:15:00.167Z,94872.00
2023-03-16T14:19:00.353Z,94874.00
2023-03-16T14:23:00.797Z,94874.00
2023-03-16T14:27:00.427Z,94872.00
2023-03-16T14:31:00.574Z,94874.00
2023-03-16T14:35:00.507Z,94878.00
2023-03-16T14:39:00.547Z,94870.00
2023-03-16T14:43:00.676Z,94866.00
2023-03-16T14:47:00.743Z,94874.00
2023-03-16T14:51:00.968Z,94874.00
2023-03-16T14:55:03.355Z,94872.00
2023-03-16T14:59:01.188Z,94870.00
2023-03-16T15:03:01.385Z,94862.00
2023-03-16T15:07:01.289Z,94862.00
2023-03-16T15:11:02.338Z,94860.00
2023-03-16T15:15:01.256Z,94856.00
2023-03-16T15:19:01.222Z,94856.00
2023-03-16T15:23:01.154Z,94856.00
2023-03-16T15:27:01.148Z,94862.00
2023-03-16T15:31:01.141Z,94868.00
2023-03-16T15:35:01.192Z,94866.00
2023-03-16T15:39:01.015Z,94860.00
2023-03-16T15:43:01.005Z,94860.00
2023-03-16T15:47:00.970Z,94858.00
2023-03-16T15:51:00.894Z,94856.00
2023-03-16T15:55:01.031Z,94858.00
2023-03-16T15:59:01.233Z,94866.00
2023-03-16T16:03:01.321Z,94860.00
2023-03-16T16:07:01.432Z,94858.00
2023-03-16T16:11:01.575Z,94858.00
2023-03-16T16:15:01.754Z,94858.00
2023-03-16T16:19:01.792Z,94862.00
2023-03-16T16:23:01.928Z,94864.00
2023-03-16T16:27:02.097Z,94862.00
2023-03-16T16:31:02.273Z,94862.00
2023-03-16T16:35:04.857Z,94870.00
2023-03-16T16:39:03.009Z,94870.00
2023-03-16T16:43:02.471Z,94876.00
2023-03-16T16:47:02.419Z,94874.00
2023-03-16T16:51:02.400Z,94884.00
2023-03-16T16:55:02.340Z,94890.00
2023-03-16T16:59:02.302Z,94892.00
2023-03-16T17:03:02.342Z,94896.00
2023-03-16T17:07:02.396Z,94898.00
2023-03-16T17:11:02.415Z,94913.00
2023-03-16T17:15:02.482Z,94919.00
2023-03-16T17:19:02.535Z,94925.00
2023-03-16T17:23:02.629Z,94929.00
2023-03-16T17:27:02.708Z,94933.00
2023-03-16T17:31:02.811Z,94939.00
2023-03-16T17:35:02.902Z,94946.00
2023-03-16T17:39:03.059Z,94954.00
2023-03-16T17:43:03.179Z,94958.00
2023-03-16T17:47:03.297Z,94966.00
2023-03-16T17:51:03.478Z,94972.00
2023-03-16T17:55:03.578Z,94974.00
2023-03-16T17:59:03.753Z,94982.00
2023-03-16T18:03:03.908Z,94982.00
2023-03-16T18:07:04.069Z,94980.00
2023-03-16T18:11:04.211Z,94988.00
2023-03-16T18:15:04.446Z,94993.00
2023-03-16T18:19:04.710Z,94993.00
2023-03-16T18:23:04.873Z,95001.00
2023-03-16T18:27:04.834Z,95001.00
2023-03-16T18:31:04.864Z,95009.00
2023-03-16T18:35:04.799Z,95015.00
2023-03-16T18:39:04.728Z,95019.00
2023-03-16T18:43:04.705Z,95019.00
2023-03-16T18:47:04.716Z,95027.00
2023-03-16T18:51:04.636Z,95021.00
2023-03-16T18:55:04.587Z,95021.00
2023-03-16T18:59:04.550Z,95025.00
2023-03-16T19:03:04.480Z,95027.00
2023-03-16T19:07:04.489Z,95031.00
2023-03-16T19:11:04.490Z,95035.00
2023-03-16T19:15:04.536Z,95037.00
2023-03-16T19:19:04.603Z,95041.00
2023-03-16T19:23:04.608Z,95041.00
2023-03-16T19:27:04.622Z,95041.00
2023-03-16T19:31:04.648Z,95046.00
2023-03-16T19:35:04.719Z,95050.00
2023-03-16T19:39:04.764Z,95048.00
2023-03-16T19:43:04.787Z,95060.00
2023-03-16T19:47:04.821Z,95058.00
2023-03-16T19:51:04.841Z,95056.00
2023-03-16T19:55:04.894Z,95060.00
2023-03-16T19:59:04.898Z,95064.00
2023-03-16T20:03:04.975Z,95064.00
2023-03-16T20:07:05.062Z,95066.00
2023-03-16T20:11:05.087Z,95066.00
2023-03-16T20:15:05.063Z,95068.00
2023-03-16T20:19:05.175Z,95074.00
2023-03-16T20:23:05.216Z,95078.00
2023-03-16T20:27:05.223Z,95080.00
2023-03-16T20:31:05.348Z,95086.00
2023-03-16T20:35:05.339Z,95084.00
2023-03-16T20:39:05.405Z,95090.00
2023-03-16T20:43:05.473Z,95097.00
2023-03-16T20:47:05.612Z,95101.00
2023-03-16T20:51:05.683Z,95099.00
2023-03-16T20:55:05.730Z,95109.00
2023-03-16T20:59:05.823Z,95107.00
2023-03-16T21:03:05.943Z,95109.00
2023-03-16T21:07:06.019Z,95111.00
2023-03-16T21:11:06.139Z,95117.00
2023-03-16T21:15:06.249Z,95119.00
2023-03-16T21:19:07.897Z,95111.00
2023-03-16T21:23:06.398Z,95121.00
2023-03-16T21:27:06.506Z,95123.00
2023-03-16T21:31:06.663Z,95119.00
2023-03-16T21:35:06.811Z,95113.00
2023-03-16T21:39:06.850Z,95127.00
2023-03-16T21:43:06.960Z,95129.00
2023-03-16T21:47:07.135Z,95111.00
2023-03-16T21:51:07.225Z,95127.00
2023-03-16T21:55:07.346Z,95123.00
2023-03-16T21:59:07.435Z,95125.00
2023-03-16T22:03:07.597Z,95119.00
2023-03-16T22:07:07.749Z,95117.00
2023-03-16T22:11:07.841Z,95115.00
2023-03-16T22:15:08.033Z,95115.00
2023-03-16T22:19:08.076Z,95119.00
2023-03-16T22:23:08.275Z,95113.00
2023-03-16T22:27:08.371Z,95109.00
2023-03-16T22:31:08.558Z,95119.00
2023-03-16T22:35:08.643Z,95107.00
2023-03-16T22:39:08.801Z,95111.00
2023-03-16T22:43:09.968Z,95111.00
2023-03-16T22:47:09.080Z,95109.00
2023-03-16T22:51:09.233Z,95107.00
2023-03-16T22:55:09.377Z,95107.00
2023-03-16T22:59:09.568Z,95099.00
2023-03-16T23:03:09.742Z,95095.00
2023-03-16T23:07:09.965Z,95103.00
2023-03-16T23:11:10.090Z,95090.00
2023-03-16T23:15:10.256Z,95092.00
2023-03-16T23:19:23.928Z,95092.00
2023-03-16T23:23:11.398Z,95095.00
2023-03-16T23:27:10.388Z,95090.00
2023-03-16T23:31:10.374Z,95095.00
2023-03-16T23:35:10.569Z,95093.00
2023-03-16T23:39:10.682Z,95093.00
2023-03-16T23:43:10.865Z,95088.00
2023-03-16T23:47:11.103Z,95095.00
2023-03-16T23:51:11.271Z,95090.00
2023-03-16T23:55:11.385Z,95090.00
2023-03-16T23:59:11.570Z,95078.00
